sensor_id;sensor_type;location;lat;lon;timestamp;P1;durP1;ratioP1;P2;durP2;ratioP2
313;SDS011;143;51.634;7.112;2023-08-07T00:00:12;5.17;;;0.90;;
313;SDS011;143;51.634;7.112;2023-08-07T00:02:37;4.10;;;1.10;;
313;SDS011;143;51.634;7.112;2023-08-07T00:05:04;2.80;;;1.20;;
313;SDS011;143;51.634;7.112;2023-08-07T00:07:30;5.10;;;1.03;;
313;SDS011;143;51.634;7.112;2023-08-07T00:09:56;2.17;;;0.77;;
313;SDS011;143;51.634;7.112;2023-08-07T00:12:22;2.80;;;1.00;;
313;SDS011;143;51.634;7.112;2023-08-07T00:14:49;2.40;;;0.90;;
313;SDS011;143;51.634;7.112;2023-08-07T00:17:15;1.77;;;1.00;;
313;SDS011;143;51.634;7.112;2023-08-07T00:19:41;1.47;;;0.80;;
313;SDS011;143;51.634;7.112;2023-08-07T00:22:07;1.43;;;1.00;;
313;SDS011;143;51.634;7.112;2023-08-07T00:24:33;1.83;;;1.03;;
313;SDS011;143;51.634;7.112;2023-08-07T00:26:58;4.67;;;0.80;;
313;SDS011;143;51.634;7.112;2023-08-07T00:29:24;1.83;;;0.60;;
313;SDS011;143;51.634;7.112;2023-08-07T00:31:50;1.20;;;0.70;;
313;SDS011;143;51.634;7.112;2023-08-07T00:34:15;6.50;;;0.97;;
313;SDS011;143;51.634;7.112;2023-08-07T00:36:41;2.23;;;0.90;;
313;SDS011;143;51.634;7.112;2023-08-07T00:39:07;2.40;;;1.00;;
313;SDS011;143;51.634;7.112;2023-08-07T00:41:33;2.90;;;0.80;;
313;SDS011;143;51.634;7.112;2023-08-07T00:43:59;4.33;;;0.97;;
313;SDS011;143;51.634;7.112;2023-08-07T00:46:25;5.03;;;1.13;;
313;SDS011;143;51.634;7.112;2023-08-07T00:48:52;3.13;;;1.30;;
313;SDS011;143;51.634;7.112;2023-08-07T00:51:19;9.50;;;1.67;;
313;SDS011;143;51.634;7.112;2023-08-07T00:53:45;8.03;;;1.23;;
313;SDS011;143;51.634;7.112;2023-08-07T00:56:12;4.20;;;1.07;;
313;SDS011;143;51.634;7.112;2023-08-07T00:58:38;11.50;;;1.70;;
313;SDS011;143;51.634;7.112;2023-08-07T01:01:04;3.97;;;1.30;;
313;SDS011;143;51.634;7.112;2023-08-07T01:03:30;3.53;;;1.30;;
313;SDS011;143;51.634;7.112;2023-08-07T01:05:56;4.90;;;1.50;;
313;SDS011;143;51.634;7.112;2023-08-07T01:08:22;5.10;;;1.60;;
313;SDS011;143;51.634;7.112;2023-08-07T01:11:06;5.10;;;2.30;;
313;SDS011;143;51.634;7.112;2023-08-07T01:13:42;4.03;;;1.80;;
313;SDS011;143;51.634;7.112;2023-08-07T01:16:21;6.50;;;2.20;;
313;SDS011;143;51.634;7.112;2023-08-07T01:19:13;5.17;;;1.50;;
313;SDS011;143;51.634;7.112;2023-08-07T01:21:49;5.63;;;1.80;;
313;SDS011;143;51.634;7.112;2023-08-07T01:24:15;2.30;;;1.60;;
313;SDS011;143;51.634;7.112;2023-08-07T01:26:42;3.63;;;1.60;;
313;SDS011;143;51.634;7.112;2023-08-07T01:29:16;4.90;;;1.50;;
313;SDS011;143;51.634;7.112;2023-08-07T01:31:51;6.30;;;1.90;;
313;SDS011;143;51.634;7.112;2023-08-07T01:34:20;4.77;;;1.40;;
313;SDS011;143;51.634;7.112;2023-08-07T01:36:48;2.90;;;1.63;;
313;SDS011;143;51.634;7.112;2023-08-07T01:39:15;8.93;;;2.00;;
313;SDS011;143;51.634;7.112;2023-08-07T01:41:43;3.20;;;1.70;;
313;SDS011;143;51.634;7.112;2023-08-07T01:44:08;3.70;;;1.37;;
313;SDS011;143;51.634;7.112;2023-08-07T01:46:34;2.93;;;1.30;;
313;SDS011;143;51.634;7.112;2023-08-07T01:49:00;5.23;;;1.70;;
313;SDS011;143;51.634;7.112;2023-08-07T01:51:26;10.57;;;1.67;;
313;SDS011;143;51.634;7.112;2023-08-07T01:53:51;3.30;;;1.30;;
313;SDS011;143;51.634;7.112;2023-08-07T01:56:17;6.00;;;1.77;;
313;SDS011;143;51.634;7.112;2023-08-07T01:58:43;7.00;;;1.50;;
313;SDS011;143;51.634;7.112;2023-08-07T02:01:09;3.53;;;1.47;;
313;SDS011;143;51.634;7.112;2023-08-07T02:03:34;5.73;;;1.43;;
313;SDS011;143;51.634;7.112;2023-08-07T02:06:00;2.10;;;1.10;;
313;SDS011;143;51.634;7.112;2023-08-07T02:08:27;3.30;;;1.10;;
313;SDS011;143;51.634;7.112;2023-08-07T02:10:53;2.90;;;1.33;;
313;SDS011;143;51.634;7.112;2023-08-07T02:13:19;4.70;;;1.17;;
313;SDS011;143;51.634;7.112;2023-08-07T02:15:44;4.00;;;1.37;;
313;SDS011;143;51.634;7.112;2023-08-07T02:18:10;3.30;;;1.30;;
313;SDS011;143;51.634;7.112;2023-08-07T02:20:36;2.80;;;1.20;;
313;SDS011;143;51.634;7.112;2023-08-07T02:23:01;3.13;;;1.00;;
313;SDS011;143;51.634;7.112;2023-08-07T02:25:27;6.60;;;1.30;;
313;SDS011;143;51.634;7.112;2023-08-07T02:27:53;2.07;;;0.90;;
313;SDS011;143;51.634;7.112;2023-08-07T02:30:18;1.80;;;1.03;;
313;SDS011;143;51.634;7.112;2023-08-07T02:32:44;2.37;;;1.00;;
313;SDS011;143;51.634;7.112;2023-08-07T02:35:11;1.03;;;0.83;;
313;SDS011;143;51.634;7.112;2023-08-07T02:37:37;2.17;;;0.80;;
313;SDS011;143;51.634;7.112;2023-08-07T02:40:02;3.03;;;1.17;;
313;SDS011;143;51.634;7.112;2023-08-07T02:42:29;4.97;;;1.10;;
313;SDS011;143;51.634;7.112;2023-08-07T02:44:55;3.20;;;1.00;;
313;SDS011;143;51.634;7.112;2023-08-07T02:47:20;3.60;;;1.40;;
313;SDS011;143;51.634;7.112;2023-08-07T02:49:46;5.57;;;1.33;;
313;SDS011;143;51.634;7.112;2023-08-07T02:52:11;2.37;;;1.17;;
313;SDS011;143;51.634;7.112;2023-08-07T02:54:37;2.73;;;1.03;;
313;SDS011;143;51.634;7.112;2023-08-07T02:57:03;2.53;;;1.30;;
313;SDS011;143;51.634;7.112;2023-08-07T02:59:29;3.43;;;2.10;;
313;SDS011;143;51.634;7.112;2023-08-07T03:01:54;3.00;;;1.30;;
313;SDS011;143;51.634;7.112;2023-08-07T03:04:21;7.67;;;1.10;;
313;SDS011;143;51.634;7.112;2023-08-07T03:06:47;2.00;;;0.80;;
313;SDS011;143;51.634;7.112;2023-08-07T03:09:12;2.77;;;0.90;;
313;SDS011;143;51.634;7.112;2023-08-07T03:11:38;4.30;;;1.33;;
313;SDS011;143;51.634;7.112;2023-08-07T03:14:03;3.40;;;1.10;;
313;SDS011;143;51.634;7.112;2023-08-07T03:16:29;1.50;;;1.20;;
313;SDS011;143;51.634;7.112;2023-08-07T03:18:55;6.40;;;1.60;;
313;SDS011;143;51.634;7.112;2023-08-07T03:21:21;3.10;;;1.40;;
313;SDS011;143;51.634;7.112;2023-08-07T03:23:46;5.27;;;1.93;;
313;SDS011;143;51.634;7.112;2023-08-07T03:26:12;7.03;;;1.70;;
313;SDS011;143;51.634;7.112;2023-08-07T03:28:38;4.90;;;2.10;;
313;SDS011;143;51.634;7.112;2023-08-07T03:31:04;7.83;;;2.40;;
313;SDS011;143;51.634;7.112;2023-08-07T03:33:30;10.93;;;2.03;;
313;SDS011;143;51.634;7.112;2023-08-07T03:35:56;8.97;;;2.30;;
313;SDS011;143;51.634;7.112;2023-08-07T03:38:22;11.07;;;2.77;;
313;SDS011;143;51.634;7.112;2023-08-07T03:40:47;13.23;;;3.03;;
313;SDS011;143;51.634;7.112;2023-08-07T03:43:13;5.77;;;2.70;;
313;SDS011;143;51.634;7.112;2023-08-07T03:45:39;7.10;;;2.60;;
313;SDS011;143;51.634;7.112;2023-08-07T03:48:05;4.87;;;2.40;;
313;SDS011;143;51.634;7.112;2023-08-07T03:50:31;13.40;;;3.07;;
313;SDS011;143;51.634;7.112;2023-08-07T03:53:00;12.73;;;3.83;;
313;SDS011;143;51.634;7.112;2023-08-07T03:55:26;12.80;;;2.70;;
313;SDS011;143;51.634;7.112;2023-08-07T03:57:52;11.27;;;3.27;;
313;SDS011;143;51.634;7.112;2023-08-07T04:00:17;7.87;;;2.90;;
313;SDS011;143;51.634;7.112;2023-08-07T04:02:43;8.50;;;2.33;;
313;SDS011;143;51.634;7.112;2023-08-07T04:05:09;11.07;;;2.87;;
313;SDS011;143;51.634;7.112;2023-08-07T04:07:35;10.80;;;2.47;;
313;SDS011;143;51.634;7.112;2023-08-07T04:10:01;9.30;;;2.87;;
313;SDS011;143;51.634;7.112;2023-08-07T04:12:27;11.67;;;3.03;;
313;SDS011;143;51.634;7.112;2023-08-07T04:14:53;8.83;;;3.50;;
313;SDS011;143;51.634;7.112;2023-08-07T04:17:18;9.53;;;3.23;;
313;SDS011;143;51.634;7.112;2023-08-07T04:19:44;9.70;;;3.50;;
313;SDS011;143;51.634;7.112;2023-08-07T04:22:10;7.37;;;3.50;;
313;SDS011;143;51.634;7.112;2023-08-07T04:24:35;7.57;;;2.97;;
313;SDS011;143;51.634;7.112;2023-08-07T04:27:01;8.60;;;2.37;;
313;SDS011;143;51.634;7.112;2023-08-07T04:29:27;14.40;;;3.97;;
313;SDS011;143;51.634;7.112;2023-08-07T04:31:53;13.23;;;3.20;;
313;SDS011;143;51.634;7.112;2023-08-07T04:34:19;11.30;;;3.63;;
313;SDS011;143;51.634;7.112;2023-08-07T04:36:44;11.93;;;3.00;;
313;SDS011;143;51.634;7.112;2023-08-07T04:39:10;10.17;;;3.60;;
313;SDS011;143;51.634;7.112;2023-08-07T04:41:38;11.23;;;4.20;;
313;SDS011;143;51.634;7.112;2023-08-07T04:44:04;15.47;;;3.53;;
313;SDS011;143;51.634;7.112;2023-08-07T04:46:30;10.17;;;4.07;;
313;SDS011;143;51.634;7.112;2023-08-07T04:48:55;10.27;;;3.47;;
313;SDS011;143;51.634;7.112;2023-08-07T04:51:21;8.80;;;2.80;;
313;SDS011;143;51.634;7.112;2023-08-07T04:53:47;11.80;;;3.57;;
313;SDS011;143;51.634;7.112;2023-08-07T04:56:15;7.33;;;3.17;;
313;SDS011;143;51.634;7.112;2023-08-07T04:58:42;12.03;;;2.97;;
313;SDS011;143;51.634;7.112;2023-08-07T05:01:07;7.00;;;2.70;;
313;SDS011;143;51.634;7.112;2023-08-07T05:03:34;6.20;;;2.30;;
313;SDS011;143;51.634;7.112;2023-08-07T05:06:00;7.97;;;2.73;;
313;SDS011;143;51.634;7.112;2023-08-07T05:08:26;7.77;;;2.80;;
313;SDS011;143;51.634;7.112;2023-08-07T05:10:52;5.50;;;3.03;;
313;SDS011;143;51.634;7.112;2023-08-07T05:13:18;11.77;;;3.10;;
313;SDS011;143;51.634;7.112;2023-08-07T05:15:43;15.43;;;2.60;;
313;SDS011;143;51.634;7.112;2023-08-07T05:18:11;9.33;;;3.27;;
313;SDS011;143;51.634;7.112;2023-08-07T05:20:37;7.93;;;2.50;;
313;SDS011;143;51.634;7.112;2023-08-07T05:23:03;8.87;;;2.73;;
313;SDS011;143;51.634;7.112;2023-08-07T05:25:28;7.70;;;3.50;;
313;SDS011;143;51.634;7.112;2023-08-07T05:27:54;9.90;;;3.07;;
313;SDS011;143;51.634;7.112;2023-08-07T05:30:20;13.47;;;3.37;;
313;SDS011;143;51.634;7.112;2023-08-07T05:32:45;6.77;;;2.83;;
313;SDS011;143;51.634;7.112;2023-08-07T05:35:11;12.63;;;4.40;;
313;SDS011;143;51.634;7.112;2023-08-07T05:37:37;9.77;;;3.33;;
313;SDS011;143;51.634;7.112;2023-08-07T05:40:03;12.03;;;3.30;;
313;SDS011;143;51.634;7.112;2023-08-07T05:42:29;5.63;;;2.77;;
313;SDS011;143;51.634;7.112;2023-08-07T05:44:55;5.10;;;2.90;;
313;SDS011;143;51.634;7.112;2023-08-07T05:47:20;6.23;;;2.90;;
313;SDS011;143;51.634;7.112;2023-08-07T05:49:46;7.80;;;2.60;;
313;SDS011;143;51.634;7.112;2023-08-07T05:52:11;7.67;;;3.57;;
313;SDS011;143;51.634;7.112;2023-08-07T05:54:39;8.23;;;2.73;;
313;SDS011;143;51.634;7.112;2023-08-07T05:57:05;10.73;;;2.43;;
313;SDS011;143;51.634;7.112;2023-08-07T05:59:31;12.03;;;2.97;;
313;SDS011;143;51.634;7.112;2023-08-07T06:01:59;9.07;;;3.03;;
313;SDS011;143;51.634;7.112;2023-08-07T06:04:25;9.87;;;3.00;;
313;SDS011;143;51.634;7.112;2023-08-07T06:06:50;8.10;;;2.50;;
313;SDS011;143;51.634;7.112;2023-08-07T06:09:16;7.93;;;2.90;;
313;SDS011;143;51.634;7.112;2023-08-07T06:11:42;4.27;;;2.50;;
313;SDS011;143;51.634;7.112;2023-08-07T06:14:08;4.70;;;2.43;;
313;SDS011;143;51.634;7.112;2023-08-07T06:16:33;6.23;;;2.60;;
313;SDS011;143;51.634;7.112;2023-08-07T06:18:59;7.40;;;3.27;;
313;SDS011;143;51.634;7.112;2023-08-07T06:21:25;9.10;;;3.10;;
313;SDS011;143;51.634;7.112;2023-08-07T06:23:53;9.30;;;2.53;;
313;SDS011;143;51.634;7.112;2023-08-07T06:26:19;7.23;;;3.20;;
313;SDS011;143;51.634;7.112;2023-08-07T06:28:45;11.30;;;3.20;;
313;SDS011;143;51.634;7.112;2023-08-07T06:31:11;7.17;;;2.27;;
313;SDS011;143;51.634;7.112;2023-08-07T06:33:37;8.90;;;2.67;;
313;SDS011;143;51.634;7.112;2023-08-07T06:36:04;10.07;;;2.50;;
313;SDS011;143;51.634;7.112;2023-08-07T06:38:30;6.73;;;2.10;;
313;SDS011;143;51.634;7.112;2023-08-07T06:40:56;13.00;;;2.60;;
313;SDS011;143;51.634;7.112;2023-08-07T06:43:22;5.70;;;2.57;;
313;SDS011;143;51.634;7.112;2023-08-07T06:45:54;2.90;;;1.70;;
313;SDS011;143;51.634;7.112;2023-08-07T06:48:21;4.27;;;1.53;;
313;SDS011;143;51.634;7.112;2023-08-07T06:50:47;6.47;;;1.93;;
313;SDS011;143;51.634;7.112;2023-08-07T06:53:13;4.03;;;2.47;;
313;SDS011;143;51.634;7.112;2023-08-07T06:55:42;6.50;;;2.13;;
313;SDS011;143;51.634;7.112;2023-08-07T06:58:09;4.50;;;2.03;;
313;SDS011;143;51.634;7.112;2023-08-07T07:00:35;8.30;;;2.53;;
313;SDS011;143;51.634;7.112;2023-08-07T07:03:01;3.53;;;1.90;;
313;SDS011;143;51.634;7.112;2023-08-07T07:05:28;6.93;;;2.30;;
313;SDS011;143;51.634;7.112;2023-08-07T07:07:55;7.47;;;2.63;;
313;SDS011;143;51.634;7.112;2023-08-07T07:10:21;6.87;;;2.60;;
313;SDS011;143;51.634;7.112;2023-08-07T07:12:47;5.40;;;2.20;;
313;SDS011;143;51.634;7.112;2023-08-07T07:15:13;7.70;;;1.60;;
313;SDS011;143;51.634;7.112;2023-08-07T07:17:39;7.70;;;1.97;;
313;SDS011;143;51.634;7.112;2023-08-07T07:20:05;4.10;;;1.90;;
313;SDS011;143;51.634;7.112;2023-08-07T07:22:31;6.20;;;1.80;;
313;SDS011;143;51.634;7.112;2023-08-07T07:24:56;2.93;;;1.93;;
313;SDS011;143;51.634;7.112;2023-08-07T07:27:22;4.37;;;1.77;;
313;SDS011;143;51.634;7.112;2023-08-07T07:29:50;6.13;;;2.00;;
313;SDS011;143;51.634;7.112;2023-08-07T07:32:16;4.27;;;2.10;;
313;SDS011;143;51.634;7.112;2023-08-07T07:34:41;5.87;;;2.63;;
313;SDS011;143;51.634;7.112;2023-08-07T07:37:07;3.63;;;1.70;;
313;SDS011;143;51.634;7.112;2023-08-07T07:39:34;4.20;;;2.17;;
313;SDS011;143;51.634;7.112;2023-08-07T07:41:59;12.03;;;3.17;;
313;SDS011;143;51.634;7.112;2023-08-07T07:44:25;5.47;;;1.90;;
313;SDS011;143;51.634;7.112;2023-08-07T07:46:51;6.53;;;2.23;;
313;SDS011;143;51.634;7.112;2023-08-07T07:49:16;9.60;;;2.37;;
313;SDS011;143;51.634;7.112;2023-08-07T07:51:42;5.10;;;2.73;;
313;SDS011;143;51.634;7.112;2023-08-07T07:54:09;6.20;;;2.70;;
313;SDS011;143;51.634;7.112;2023-08-07T07:56:35;6.00;;;2.27;;
313;SDS011;143;51.634;7.112;2023-08-07T07:59:01;6.67;;;2.17;;
313;SDS011;143;51.634;7.112;2023-08-07T08:01:27;9.40;;;3.87;;
313;SDS011;143;51.634;7.112;2023-08-07T08:03:53;4.50;;;2.30;;
313;SDS011;143;51.634;7.112;2023-08-07T08:06:19;4.40;;;2.07;;
313;SDS011;143;51.634;7.112;2023-08-07T08:08:44;9.83;;;2.57;;
313;SDS011;143;51.634;7.112;2023-08-07T08:11:10;8.90;;;1.63;;
313;SDS011;143;51.634;7.112;2023-08-07T08:13:36;4.70;;;2.00;;
313;SDS011;143;51.634;7.112;2023-08-07T08:16:04;3.10;;;1.73;;
313;SDS011;143;51.634;7.112;2023-08-07T08:18:30;2.40;;;1.40;;
313;SDS011;143;51.634;7.112;2023-08-07T08:20:56;2.50;;;1.40;;
313;SDS011;143;51.634;7.112;2023-08-07T08:23:21;3.40;;;1.60;;
313;SDS011;143;51.634;7.112;2023-08-07T08:25:47;1.87;;;1.50;;
313;SDS011;143;51.634;7.112;2023-08-07T08:28:13;2.70;;;1.43;;
313;SDS011;143;51.634;7.112;2023-08-07T08:30:39;5.30;;;2.10;;
313;SDS011;143;51.634;7.112;2023-08-07T08:33:05;6.90;;;2.13;;
313;SDS011;143;51.634;7.112;2023-08-07T08:35:31;7.87;;;2.30;;
313;SDS011;143;51.634;7.112;2023-08-07T08:37:57;5.00;;;2.10;;
313;SDS011;143;51.634;7.112;2023-08-07T08:40:24;10.43;;;2.20;;
313;SDS011;143;51.634;7.112;2023-08-07T08:42:50;4.80;;;2.50;;
313;SDS011;143;51.634;7.112;2023-08-07T08:45:18;6.50;;;2.50;;
313;SDS011;143;51.634;7.112;2023-08-07T08:47:46;7.20;;;2.80;;
313;SDS011;143;51.634;7.112;2023-08-07T08:50:16;4.00;;;2.13;;
313;SDS011;143;51.634;7.112;2023-08-07T08:52:43;13.43;;;3.33;;
313;SDS011;143;51.634;7.112;2023-08-07T08:55:10;13.73;;;2.70;;
313;SDS011;143;51.634;7.112;2023-08-07T08:57:38;8.20;;;3.07;;
313;SDS011;143;51.634;7.112;2023-08-07T09:00:05;10.80;;;3.87;;
313;SDS011;143;51.634;7.112;2023-08-07T09:02:35;18.67;;;3.57;;
313;SDS011;143;51.634;7.112;2023-08-07T09:05:02;17.87;;;3.73;;
313;SDS011;143;51.634;7.112;2023-08-07T09:07:27;13.37;;;4.47;;
313;SDS011;143;51.634;7.112;2023-08-07T09:09:54;9.90;;;3.10;;
313;SDS011;143;51.634;7.112;2023-08-07T09:12:23;11.53;;;3.83;;
313;SDS011;143;51.634;7.112;2023-08-07T09:14:55;21.30;;;3.97;;
313;SDS011;143;51.634;7.112;2023-08-07T09:17:28;9.13;;;3.67;;
313;SDS011;143;51.634;7.112;2023-08-07T09:19:56;18.20;;;3.70;;
313;SDS011;143;51.634;7.112;2023-08-07T09:22:23;18.17;;;3.77;;
313;SDS011;143;51.634;7.112;2023-08-07T09:24:49;13.10;;;3.40;;
313;SDS011;143;51.634;7.112;2023-08-07T09:27:15;14.03;;;3.60;;
313;SDS011;143;51.634;7.112;2023-08-07T09:29:44;11.73;;;3.57;;
313;SDS011;143;51.634;7.112;2023-08-07T09:32:11;16.23;;;6.00;;
313;SDS011;143;51.634;7.112;2023-08-07T09:34:42;13.73;;;4.70;;
313;SDS011;143;51.634;7.112;2023-08-07T09:37:08;28.87;;;3.87;;
313;SDS011;143;51.634;7.112;2023-08-07T09:39:35;10.80;;;3.07;;
313;SDS011;143;51.634;7.112;2023-08-07T09:42:02;14.30;;;4.20;;
313;SDS011;143;51.634;7.112;2023-08-07T09:44:46;7.47;;;3.40;;
313;SDS011;143;51.634;7.112;2023-08-07T09:47:14;10.03;;;3.10;;
313;SDS011;143;51.634;7.112;2023-08-07T09:49:42;16.40;;;3.40;;
313;SDS011;143;51.634;7.112;2023-08-07T09:52:09;8.10;;;3.00;;
313;SDS011;143;51.634;7.112;2023-08-07T09:54:38;15.70;;;3.03;;
313;SDS011;143;51.634;7.112;2023-08-07T09:57:04;19.50;;;3.50;;
313;SDS011;143;51.634;7.112;2023-08-07T09:59:31;6.13;;;2.73;;
313;SDS011;143;51.634;7.112;2023-08-07T10:01:58;9.90;;;2.40;;
313;SDS011;143;51.634;7.112;2023-08-07T10:04:26;11.33;;;2.67;;
313;SDS011;143;51.634;7.112;2023-08-07T10:06:52;6.80;;;2.40;;
313;SDS011;143;51.634;7.112;2023-08-07T10:09:18;17.30;;;2.60;;
313;SDS011;143;51.634;7.112;2023-08-07T10:11:44;7.43;;;2.40;;
313;SDS011;143;51.634;7.112;2023-08-07T10:14:11;9.70;;;3.07;;
313;SDS011;143;51.634;7.112;2023-08-07T10:16:39;9.70;;;2.70;;
313;SDS011;143;51.634;7.112;2023-08-07T10:19:06;10.00;;;3.30;;
313;SDS011;143;51.634;7.112;2023-08-07T10:21:33;9.20;;;3.27;;
313;SDS011;143;51.634;7.112;2023-08-07T10:24:01;8.33;;;2.80;;
313;SDS011;143;51.634;7.112;2023-08-07T10:26:29;12.13;;;3.17;;
313;SDS011;143;51.634;7.112;2023-08-07T10:28:57;9.80;;;3.10;;
313;SDS011;143;51.634;7.112;2023-08-07T10:31:25;8.83;;;3.40;;
313;SDS011;143;51.634;7.112;2023-08-07T10:33:52;13.43;;;4.00;;
313;SDS011;143;51.634;7.112;2023-08-07T10:36:18;9.20;;;3.47;;
313;SDS011;143;51.634;7.112;2023-08-07T10:38:44;12.30;;;3.03;;
313;SDS011;143;51.634;7.112;2023-08-07T10:41:10;11.33;;;3.33;;
313;SDS011;143;51.634;7.112;2023-08-07T10:43:38;11.10;;;3.30;;
313;SDS011;143;51.634;7.112;2023-08-07T10:46:06;11.17;;;3.40;;
313;SDS011;143;51.634;7.112;2023-08-07T10:48:43;12.60;;;2.83;;
313;SDS011;143;51.634;7.112;2023-08-07T10:51:14;10.67;;;2.97;;
313;SDS011;143;51.634;7.112;2023-08-07T10:53:46;22.03;;;3.40;;
313;SDS011;143;51.634;7.112;2023-08-07T10:56:17;15.13;;;2.70;;
313;SDS011;143;51.634;7.112;2023-08-07T10:58:54;16.70;;;3.03;;
313;SDS011;143;51.634;7.112;2023-08-07T11:03:56;7.27;;;2.50;;
313;SDS011;143;51.634;7.112;2023-08-07T11:06:26;9.70;;;2.80;;
313;SDS011;143;51.634;7.112;2023-08-07T11:08:58;12.03;;;3.13;;
313;SDS011;143;51.634;7.112;2023-08-07T11:11:24;9.00;;;2.63;;
313;SDS011;143;51.634;7.112;2023-08-07T11:13:51;7.20;;;2.50;;
313;SDS011;143;51.634;7.112;2023-08-07T11:16:17;11.70;;;2.60;;
313;SDS011;143;51.634;7.112;2023-08-07T11:18:45;15.63;;;3.60;;
313;SDS011;143;51.634;7.112;2023-08-07T11:21:13;6.80;;;2.47;;
313;SDS011;143;51.634;7.112;2023-08-07T11:23:39;12.20;;;2.50;;
313;SDS011;143;51.634;7.112;2023-08-07T11:26:06;10.63;;;2.43;;
313;SDS011;143;51.634;7.112;2023-08-07T11:28:32;8.47;;;3.23;;
313;SDS011;143;51.634;7.112;2023-08-07T11:30:58;12.57;;;2.70;;
313;SDS011;143;51.634;7.112;2023-08-07T11:33:25;7.27;;;2.43;;
313;SDS011;143;51.634;7.112;2023-08-07T11:35:53;7.43;;;2.50;;
313;SDS011;143;51.634;7.112;2023-08-07T11:38:29;9.83;;;2.30;;
313;SDS011;143;51.634;7.112;2023-08-07T11:40:58;8.10;;;2.50;;
313;SDS011;143;51.634;7.112;2023-08-07T11:43:32;6.50;;;2.47;;
313;SDS011;143;51.634;7.112;2023-08-07T11:46:05;16.43;;;2.80;;
313;SDS011;143;51.634;7.112;2023-08-07T11:48:33;10.40;;;2.80;;
313;SDS011;143;51.634;7.112;2023-08-07T11:51:02;10.67;;;2.43;;
313;SDS011;143;51.634;7.112;2023-08-07T11:53:30;18.00;;;2.67;;
313;SDS011;143;51.634;7.112;2023-08-07T11:58:24;9.83;;;2.80;;
313;SDS011;143;51.634;7.112;2023-08-07T12:00:52;9.50;;;3.30;;
313;SDS011;143;51.634;7.112;2023-08-07T12:05:57;10.33;;;2.60;;
313;SDS011;143;51.634;7.112;2023-08-07T12:08:24;8.57;;;2.20;;
313;SDS011;143;51.634;7.112;2023-08-07T12:10:56;9.93;;;2.20;;
313;SDS011;143;51.634;7.112;2023-08-07T12:13:25;7.30;;;2.90;;
313;SDS011;143;51.634;7.112;2023-08-07T12:15:55;6.63;;;2.23;;
313;SDS011;143;51.634;7.112;2023-08-07T12:18:22;5.67;;;2.17;;
313;SDS011;143;51.634;7.112;2023-08-07T12:20:49;5.93;;;2.70;;
313;SDS011;143;51.634;7.112;2023-08-07T12:23:16;15.40;;;2.70;;
313;SDS011;143;51.634;7.112;2023-08-07T12:25:43;8.50;;;2.10;;
313;SDS011;143;51.634;7.112;2023-08-07T12:28:09;8.20;;;1.93;;
313;SDS011;143;51.634;7.112;2023-08-07T12:30:36;8.20;;;2.30;;
313;SDS011;143;51.634;7.112;2023-08-07T12:33:03;4.20;;;1.80;;
313;SDS011;143;51.634;7.112;2023-08-07T12:35:33;3.27;;;1.73;;
313;SDS011;143;51.634;7.112;2023-08-07T12:37:59;3.13;;;1.90;;
313;SDS011;143;51.634;7.112;2023-08-07T12:40:27;9.20;;;2.10;;
313;SDS011;143;51.634;7.112;2023-08-07T12:42:54;4.93;;;2.10;;
313;SDS011;143;51.634;7.112;2023-08-07T12:45:20;8.33;;;2.57;;
313;SDS011;143;51.634;7.112;2023-08-07T12:47:46;14.70;;;2.70;;
313;SDS011;143;51.634;7.112;2023-08-07T12:50:11;5.80;;;1.90;;
313;SDS011;143;51.634;7.112;2023-08-07T12:52:38;5.73;;;2.10;;
313;SDS011;143;51.634;7.112;2023-08-07T12:55:05;8.20;;;2.10;;
313;SDS011;143;51.634;7.112;2023-08-07T12:57:32;5.70;;;2.27;;
313;SDS011;143;51.634;7.112;2023-08-07T12:59:58;5.70;;;2.20;;
313;SDS011;143;51.634;7.112;2023-08-07T13:02:24;5.70;;;2.37;;
313;SDS011;143;51.634;7.112;2023-08-07T13:04:50;5.40;;;2.33;;
313;SDS011;143;51.634;7.112;2023-08-07T13:07:19;17.57;;;2.93;;
313;SDS011;143;51.634;7.112;2023-08-07T13:09:44;4.00;;;2.03;;
313;SDS011;143;51.634;7.112;2023-08-07T13:12:10;6.53;;;2.17;;
313;SDS011;143;51.634;7.112;2023-08-07T13:14:36;7.30;;;1.80;;
313;SDS011;143;51.634;7.112;2023-08-07T13:17:01;5.20;;;2.40;;
313;SDS011;143;51.634;7.112;2023-08-07T13:19:27;5.83;;;2.03;;
313;SDS011;143;51.634;7.112;2023-08-07T13:21:53;6.00;;;2.70;;
313;SDS011;143;51.634;7.112;2023-08-07T13:24:18;7.97;;;2.60;;
313;SDS011;143;51.634;7.112;2023-08-07T13:26:44;10.60;;;2.73;;
313;SDS011;143;51.634;7.112;2023-08-07T13:29:13;7.40;;;2.63;;
313;SDS011;143;51.634;7.112;2023-08-07T13:31:39;7.20;;;2.43;;
313;SDS011;143;51.634;7.112;2023-08-07T13:34:11;5.03;;;2.20;;
313;SDS011;143;51.634;7.112;2023-08-07T13:36:37;9.80;;;2.60;;
313;SDS011;143;51.634;7.112;2023-08-07T13:39:07;7.70;;;2.10;;
313;SDS011;143;51.634;7.112;2023-08-07T13:41:34;6.93;;;2.70;;
313;SDS011;143;51.634;7.112;2023-08-07T13:44:00;12.80;;;3.10;;
313;SDS011;143;51.634;7.112;2023-08-07T13:46:26;11.03;;;2.20;;
313;SDS011;143;51.634;7.112;2023-08-07T13:48:51;7.47;;;3.00;;
313;SDS011;143;51.634;7.112;2023-08-07T13:51:17;6.93;;;2.67;;
313;SDS011;143;51.634;7.112;2023-08-07T13:53:44;6.47;;;2.53;;
313;SDS011;143;51.634;7.112;2023-08-07T13:56:10;8.77;;;2.83;;
313;SDS011;143;51.634;7.112;2023-08-07T13:58:39;8.50;;;2.43;;
313;SDS011;143;51.634;7.112;2023-08-07T14:01:04;10.50;;;2.73;;
313;SDS011;143;51.634;7.112;2023-08-07T14:03:30;7.60;;;2.80;;
313;SDS011;143;51.634;7.112;2023-08-07T14:05:56;8.43;;;3.23;;
313;SDS011;143;51.634;7.112;2023-08-07T14:08:22;6.13;;;2.53;;
313;SDS011;143;51.634;7.112;2023-08-07T14:10:48;12.57;;;3.23;;
313;SDS011;143;51.634;7.112;2023-08-07T14:13:14;7.27;;;2.57;;
313;SDS011;143;51.634;7.112;2023-08-07T14:15:39;8.33;;;2.97;;
313;SDS011;143;51.634;7.112;2023-08-07T14:18:05;13.27;;;2.77;;
313;SDS011;143;51.634;7.112;2023-08-07T14:20:31;8.77;;;2.27;;
313;SDS011;143;51.634;7.112;2023-08-07T14:22:57;12.63;;;2.93;;
313;SDS011;143;51.634;7.112;2023-08-07T14:25:23;9.07;;;3.10;;
313;SDS011;143;51.634;7.112;2023-08-07T14:27:48;10.93;;;2.27;;
313;SDS011;143;51.634;7.112;2023-08-07T14:30:15;7.23;;;2.80;;
313;SDS011;143;51.634;7.112;2023-08-07T14:32:41;14.13;;;2.40;;
313;SDS011;143;51.634;7.112;2023-08-07T14:35:08;3.83;;;2.20;;
313;SDS011;143;51.634;7.112;2023-08-07T14:37:34;9.93;;;2.67;;
313;SDS011;143;51.634;7.112;2023-08-07T14:40:01;6.20;;;2.73;;
313;SDS011;143;51.634;7.112;2023-08-07T14:42:27;10.33;;;3.10;;
313;SDS011;143;51.634;7.112;2023-08-07T14:44:53;7.73;;;2.30;;
313;SDS011;143;51.634;7.112;2023-08-07T14:47:19;12.40;;;3.23;;
313;SDS011;143;51.634;7.112;2023-08-07T14:49:44;13.80;;;3.20;;
313;SDS011;143;51.634;7.112;2023-08-07T14:52:10;5.57;;;2.03;;
313;SDS011;143;51.634;7.112;2023-08-07T14:54:36;13.10;;;3.53;;
313;SDS011;143;51.634;7.112;2023-08-07T14:57:01;8.63;;;3.10;;
313;SDS011;143;51.634;7.112;2023-08-07T14:59:27;6.90;;;2.50;;
313;SDS011;143;51.634;7.112;2023-08-07T15:01:53;9.63;;;2.57;;
313;SDS011;143;51.634;7.112;2023-08-07T15:04:18;11.03;;;2.33;;
313;SDS011;143;51.634;7.112;2023-08-07T15:06:44;4.83;;;1.60;;
313;SDS011;143;51.634;7.112;2023-08-07T15:09:13;12.27;;;2.50;;
313;SDS011;143;51.634;7.112;2023-08-07T15:11:39;12.73;;;2.37;;
313;SDS011;143;51.634;7.112;2023-08-07T15:14:05;11.80;;;2.80;;
313;SDS011;143;51.634;7.112;2023-08-07T15:16:31;6.27;;;1.80;;
313;SDS011;143;51.634;7.112;2023-08-07T15:18:57;12.10;;;2.60;;
313;SDS011;143;51.634;7.112;2023-08-07T15:21:23;8.40;;;2.77;;
313;SDS011;143;51.634;7.112;2023-08-07T15:23:48;21.53;;;2.93;;
313;SDS011;143;51.634;7.112;2023-08-07T15:26:14;9.20;;;2.33;;
313;SDS011;143;51.634;7.112;2023-08-07T15:28:40;7.83;;;2.90;;
313;SDS011;143;51.634;7.112;2023-08-07T15:31:06;6.03;;;2.30;;
313;SDS011;143;51.634;7.112;2023-08-07T15:33:31;4.40;;;1.70;;
313;SDS011;143;51.634;7.112;2023-08-07T15:35:57;5.50;;;2.20;;
313;SDS011;143;51.634;7.112;2023-08-07T15:38:26;4.07;;;2.13;;
313;SDS011;143;51.634;7.112;2023-08-07T15:40:53;6.73;;;2.30;;
313;SDS011;143;51.634;7.112;2023-08-07T15:43:19;14.53;;;2.87;;
313;SDS011;143;51.634;7.112;2023-08-07T15:45:45;5.10;;;2.00;;